createdAt,value
2023-05-02T00:00:03.352Z,95929.00
2023-05-02T00:01:03.085Z,95927.00
2023-05-02T00:02:03.104Z,95931.00
2023-05-02T00:03:03.165Z,95929.00
2023-05-02T00:04:03.172Z,95927.00
2023-05-02T00:05:04.028Z,95929.00
2023-05-02T00:06:03.111Z,95925.00
2023-05-02T00:07:03.046Z,95929.00
2023-05-02T00:08:04.051Z,95927.00
2023-05-02T00:09:03.132Z,95927.00
2023-05-02T00:10:03.422Z,95925.00
2023-05-02T00:11:03.086Z,95925.00
2023-05-02T00:12:03.102Z,95915.00
2023-05-02T00:13:04.095Z,95925.00
2023-05-02T00:14:03.171Z,95917.00
2023-05-02T00:15:03.167Z,95917.00
2023-05-02T00:16:04.117Z,95915.00
2023-05-02T00:17:03.185Z,95913.00
2023-05-02T00:18:04.181Z,95913.00
2023-05-02T00:19:04.137Z,95913.00
2023-05-02T00:20:04.215Z,95913.00
2023-05-02T00:21:03.149Z,95909.00
2023-05-02T00:22:04.158Z,95909.00
2023-05-02T00:23:03.185Z,95911.00
2023-05-02T00:24:04.189Z,95909.00
2023-05-02T00:25:04.196Z,95909.00
2023-05-02T00:26:04.203Z,95911.00
2023-05-02T00:27:04.188Z,95909.00
2023-05-02T00:28:03.215Z,95911.00
2023-05-02T00:29:04.210Z,95911.00
2023-05-02T00:30:03.476Z,95911.00
2023-05-02T00:31:03.342Z,95911.00
2023-05-02T00:32:04.244Z,95911.00
2023-05-02T00:33:04.348Z,95913.00
2023-05-02T00:34:04.289Z,95911.00
2023-05-02T00:35:04.309Z,95911.00
2023-05-02T00:36:04.307Z,95911.00
2023-05-02T00:37:04.361Z,95913.00
2023-05-02T00:38:04.298Z,95911.00
2023-05-02T00:39:04.326Z,95911.00
2023-05-02T00:40:04.329Z,95911.00
2023-05-02T00:41:04.335Z,95911.00
2023-05-02T00:42:04.370Z,95909.00
2023-05-02T00:43:03.357Z,95909.00
2023-05-02T00:44:03.384Z,95909.00
2023-05-02T00:45:04.414Z,95907.00
2023-05-02T00:46:03.415Z,95907.00
2023-05-02T00:47:04.420Z,95905.00
2023-05-02T00:48:03.425Z,95907.00
2023-05-02T00:49:03.398Z,95905.00
2023-05-02T00:50:04.447Z,95905.00
2023-05-02T00:51:04.432Z,95903.00
2023-05-02T00:52:03.463Z,95905.00
2023-05-02T00:53:04.485Z,95905.00
2023-05-02T00:54:03.481Z,95905.00
2023-05-02T00:55:04.537Z,95903.00
2023-05-02T00:56:03.704Z,95905.00
2023-05-02T00:57:03.529Z,95905.00
2023-05-02T00:58:04.517Z,95905.00
2023-05-02T00:59:04.548Z,95907.00
2023-05-02T01:00:04.614Z,95911.00
2023-05-02T01:01:03.610Z,95909.00
2023-05-02T01:02:03.631Z,95911.00
2023-05-02T01:03:05.453Z,95911.00
2023-05-02T01:04:04.763Z,95913.00
2023-05-02T01:05:03.667Z,95917.00
2023-05-02T01:06:04.774Z,95915.00
2023-05-02T01:07:04.708Z,95917.00
2023-05-02T01:08:03.682Z,95927.00
2023-05-02T01:09:04.728Z,95925.00
2023-05-02T01:10:04.785Z,95925.00
2023-05-02T01:11:05.311Z,95929.00
2023-05-02T01:12:04.747Z,95931.00
2023-05-02T01:13:04.766Z,95931.00
2023-05-02T01:14:04.780Z,95931.00
2023-05-02T01:15:03.780Z,95931.00
2023-05-02T01:16:03.864Z,95931.00
2023-05-02T01:17:04.823Z,95931.00
2023-05-02T01:18:04.891Z,95931.00
2023-05-02T01:19:03.856Z,95933.00
2023-05-02T01:20:03.923Z,95931.00
2023-05-02T01:21:04.849Z,95933.00
2023-05-02T01:22:04.859Z,95931.00
2023-05-02T01:23:04.887Z,95931.00
2023-05-02T01:24:03.855Z,95933.00
2023-05-02T01:25:04.891Z,95933.00
2023-05-02T01:26:03.882Z,95931.00
2023-05-02T01:27:03.908Z,95931.00
2023-05-02T01:28:04.917Z,95933.00
2023-05-02T01:29:04.932Z,95933.00
2023-05-02T01:30:04.978Z,95933.00
2023-05-02T01:31:03.961Z,95933.00
2023-05-02T01:32:05.017Z,95937.00
2023-05-02T01:33:05.017Z,95933.00
2023-05-02T01:34:05.014Z,95933.00
2023-05-02T01:35:05.077Z,95937.00
2023-05-02T01:36:05.075Z,95937.00
2023-05-02T01:37:05.025Z,95937.00
2023-05-02T01:38:04.050Z,95937.00
2023-05-02T01:39:05.075Z,95937.00
2023-05-02T01:40:04.108Z,95939.00
2023-05-02T01:41:05.087Z,95939.00
2023-05-02T01:42:04.118Z,95939.00
2023-05-02T01:43:04.108Z,95941.00
2023-05-02T01:44:04.119Z,95941.00
2023-05-02T01:45:04.135Z,95941.00
2023-05-02T01:46:05.144Z,95941.00
2023-05-02T01:47:04.164Z,95941.00
2023-05-02T01:48:04.202Z,95941.00
2023-05-02T01:49:04.191Z,95941.00
2023-05-02T01:50:05.206Z,95941.00
2023-05-02T01:51:05.207Z,95935.00
2023-05-02T01:52:05.192Z,95937.00
2023-05-02T01:53:04.206Z,95935.00
2023-05-02T01:54:04.208Z,95937.00
2023-05-02T01:55:05.245Z,95937.00
2023-05-02T01:56:04.212Z,95939.00
2023-05-02T01:57:05.219Z,95935.00
2023-05-02T01:58:05.228Z,95935.00
2023-05-02T01:59:05.223Z,95939.00
2023-05-02T02:00:05.341Z,95939.00
2023-05-02T02:01:05.969Z,95939.00
2023-05-02T02:02:04.268Z,95941.00
2023-05-02T02:03:05.283Z,95939.00
2023-05-02T02:04:05.643Z,95937.00
2023-05-02T02:05:05.301Z,95939.00
2023-05-02T02:06:04.395Z,95939.00
2023-05-02T02:07:05.314Z,95939.00
2023-05-02T02:08:05.309Z,95941.00
2023-05-02T02:09:05.329Z,95939.00
2023-05-02T02:10:05.385Z,95941.00
2023-05-02T02:11:04.368Z,95939.00
2023-05-02T02:12:05.358Z,95941.00
2023-05-02T02:13:04.372Z,95939.00
2023-05-02T02:14:05.395Z,95941.00
2023-05-02T02:15:05.412Z,95941.00
2023-05-02T02:16:05.414Z,95941.00
2023-05-02T02:17:04.493Z,95941.00
2023-05-02T02:18:04.487Z,95943.00
2023-05-02T02:19:05.453Z,95943.00
2023-05-02T02:20:05.499Z,95941.00
2023-05-02T02:21:05.458Z,95941.00
2023-05-02T02:22:04.469Z,95941.00
2023-05-02T02:23:05.492Z,95941.00
2023-05-02T02:24:05.482Z,95941.00
2023-05-02T02:25:05.503Z,95941.00
2023-05-02T02:26:05.493Z,95943.00
2023-05-02T02:27:05.487Z,95943.00
2023-05-02T02:28:04.511Z,95945.00
2023-05-02T02:29:04.561Z,95947.00
2023-05-02T02:30:04.528Z,95947.00
2023-05-02T02:31:05.611Z,95949.00
2023-05-02T02:32:04.576Z,95949.00
2023-05-02T02:33:04.577Z,95947.00
2023-05-02T02:34:04.576Z,95949.00
2023-05-02T02:35:04.540Z,95947.00
2023-05-02T02:36:04.576Z,95949.00
2023-05-02T02:37:04.589Z,95947.00
2023-05-02T02:38:05.575Z,95949.00
2023-05-02T02:39:05.594Z,95949.00
2023-05-02T02:40:05.597Z,95951.00
2023-05-02T02:41:04.620Z,95951.00
2023-05-02T02:42:05.635Z,95949.00
2023-05-02T02:43:05.616Z,95955.00
2023-05-02T02:44:04.610Z,95949.00
2023-05-02T02:45:04.691Z,95955.00
2023-05-02T02:46:05.725Z,95955.00
2023-05-02T02:47:05.672Z,95955.00
2023-05-02T02:48:04.690Z,95951.00
2023-05-02T02:49:04.665Z,95956.00
2023-05-02T02:50:05.668Z,95955.00
2023-05-02T02:51:04.686Z,95955.00
2023-05-02T02:52:05.681Z,95956.00
2023-05-02T02:53:05.733Z,95953.00
2023-05-02T02:54:15.491Z,95958.00
2023-05-02T02:55:05.732Z,95955.00
2023-05-02T02:56:04.688Z,95955.00
2023-05-02T02:57:05.671Z,95955.00
2023-05-02T02:58:05.691Z,95956.00
2023-05-02T02:59:04.673Z,95955.00
2023-05-02T03:00:05.678Z,95956.00
2023-05-02T03:01:05.650Z,95956.00
2023-05-02T03:02:04.667Z,95955.00
2023-05-02T03:03:05.642Z,95955.00
2023-05-02T03:04:05.669Z,95956.00
2023-05-02T03:05:05.620Z,95956.00
2023-05-02T03:06:05.705Z,95955.00
2023-05-02T03:07:04.630Z,95955.00
2023-05-02T03:08:04.612Z,95956.00
2023-05-02T03:09:04.620Z,95956.00
2023-05-02T03:10:04.613Z,95956.00
2023-05-02T03:11:04.607Z,95958.00
2023-05-02T03:12:04.569Z,95960.00
2023-05-02T03:13:04.570Z,95960.00
2023-05-02T03:14:04.576Z,95962.00
2023-05-02T03:15:05.553Z,95962.00
2023-05-02T03:16:05.592Z,95960.00
2023-05-02T03:17:05.584Z,95962.00
2023-05-02T03:18:04.570Z,95962.00
2023-05-02T03:19:04.514Z,95964.00
2023-05-02T03:20:05.507Z,95962.00
2023-05-02T03:21:04.510Z,95966.00
2023-05-02T03:22:05.524Z,95964.00
2023-05-02T03:23:05.506Z,95966.00
2023-05-02T03:24:04.561Z,95966.00
2023-05-02T03:25:04.475Z,95966.00
2023-05-02T03:26:05.482Z,95964.00
2023-05-02T03:27:05.530Z,95966.00
2023-05-02T03:28:04.448Z,95968.00
2023-05-02T03:29:04.465Z,95968.00
2023-05-02T03:30:05.464Z,95968.00
2023-05-02T03:31:05.503Z,95968.00
2023-05-02T03:32:05.549Z,95968.00
2023-05-02T03:33:04.458Z,95968.00
2023-05-02T03:34:04.415Z,95970.00
2023-05-02T03:35:05.424Z,95970.00
2023-05-02T03:36:05.432Z,95972.00
2023-05-02T03:37:05.408Z,95970.00
2023-05-02T03:38:04.441Z,95970.00
2023-05-02T03:39:04.399Z,95972.00
2023-05-02T03:40:05.383Z,95972.00
2023-05-02T03:41:05.377Z,95974.00
2023-05-02T03:42:04.377Z,95976.00
2023-05-02T03:43:04.368Z,95974.00
2023-05-02T03:44:05.364Z,95974.00
2023-05-02T03:45:04.385Z,95978.00
2023-05-02T03:46:05.345Z,95976.00
2023-05-02T03:47:05.465Z,95978.00
2023-05-02T03:48:04.388Z,95978.00
2023-05-02T03:49:05.731Z,95978.00
2023-05-02T03:50:05.320Z,95978.00
2023-05-02T03:51:05.304Z,95980.00
2023-05-02T03:52:05.300Z,95980.00
2023-05-02T03:53:05.320Z,95982.00
2023-05-02T03:54:05.280Z,95984.00
2023-05-02T03:55:05.260Z,95978.00
2023-05-02T03:56:05.265Z,95984.00
2023-05-02T03:57:05.261Z,95984.00
2023-05-02T03:58:05.262Z,95984.00
2023-05-02T03:59:04.273Z,95982.00
2023-05-02T04:00:04.255Z,95982.00
2023-05-02T04:01:05.222Z,95984.00
2023-05-02T04:02:05.285Z,95988.00
2023-05-02T04:03:05.306Z,95984.00
2023-05-02T04:04:05.276Z,95986.00
2023-05-02T04:05:05.253Z,95988.00
2023-05-02T04:06:05.303Z,95990.00
2023-05-02T04:07:05.200Z,95990.00
2023-05-02T04:08:05.182Z,95992.00
2023-05-02T04:09:05.178Z,95994.00
2023-05-02T04:10:05.165Z,95996.00
2023-05-02T04:11:04.175Z,95998.00
2023-05-02T04:12:04.158Z,95998.00
2023-05-02T04:13:05.164Z,96002.00
2023-05-02T04:14:05.171Z,96003.00
2023-05-02T04:15:04.291Z,96005.00
2023-05-02T04:16:04.204Z,96005.00
2023-05-02T04:17:04.381Z,96005.00
2023-05-02T04:18:04.387Z,96007.00
2023-05-02T04:19:05.209Z,96009.00
2023-05-02T04:20:05.498Z,96011.00
2023-05-02T04:21:05.243Z,96013.00
2023-05-02T04:22:05.244Z,96013.00
2023-05-02T04:23:05.276Z,96013.00
2023-05-02T04:24:04.275Z,96015.00
2023-05-02T04:25:04.284Z,96017.00
2023-05-02T04:26:05.303Z,96019.00
2023-05-02T04:27:04.335Z,96015.00
2023-05-02T04:28:04.324Z,96019.00
2023-05-02T04:29:05.328Z,96019.00
2023-05-02T04:30:04.340Z,96023.00
2023-05-02T04:31:05.470Z,96021.00
2023-05-02T04:32:05.416Z,96021.00
2023-05-02T04:33:04.402Z,96023.00
2023-05-02T04:34:05.447Z,96025.00
2023-05-02T04:35:04.431Z,96023.00
2023-05-02T04:36:05.525Z,96023.00
2023-05-02T04:37:05.436Z,96023.00
2023-05-02T04:38:05.481Z,96023.00
2023-05-02T04:39:04.496Z,96025.00
2023-05-02T04:40:05.531Z,96023.00
2023-05-02T04:41:08.905Z,96023.00
2023-05-02T04:42:04.519Z,96027.00
2023-05-02T04:43:05.551Z,96027.00
2023-05-02T04:44:05.520Z,96027.00
2023-05-02T04:45:05.484Z,96033.00
2023-05-02T04:46:05.515Z,96029.00
2023-05-02T04:47:04.547Z,96035.00
2023-05-02T04:48:05.514Z,96033.00
2023-05-02T04:49:05.465Z,96039.00
2023-05-02T04:50:05.477Z,96037.00
2023-05-02T04:51:05.453Z,96037.00
2023-05-02T04:52:05.439Z,96041.00
2023-05-02T04:53:05.444Z,96041.00
2023-05-02T04:54:05.462Z,96043.00
2023-05-02T04:55:05.438Z,96045.00
2023-05-02T04:56:05.442Z,96043.00
2023-05-02T04:57:04.450Z,96045.00
2023-05-02T04:58:05.405Z,96050.00
2023-05-02T04:59:05.402Z,96052.00
2023-05-02T05:00:05.395Z,96052.00
2023-05-02T05:01:05.453Z,96054.00
2023-05-02T05:02:04.584Z,96056.00
2023-05-02T05:03:04.604Z,96056.00
2023-05-02T05:04:04.536Z,96064.00
2023-05-02T05:05:04.583Z,96064.00
2023-05-02T05:06:04.570Z,96066.00
2023-05-02T05:07:05.900Z,96066.00
2023-05-02T05:08:05.515Z,96064.00
2023-05-02T05:09:05.546Z,96070.00
2023-05-02T05:10:05.570Z,96070.00
2023-05-02T05:11:04.568Z,96070.00
2023-05-02T05:12:06.271Z,96070.00
2023-05-02T05:13:06.356Z,96072.00
2023-05-02T05:14:05.806Z,96072.00
2023-05-02T05:15:05.712Z,96074.00
2023-05-02T05:16:05.712Z,96070.00
2023-05-02T05:17:04.664Z,96072.00
2023-05-02T05:18:05.771Z,96072.00
2023-05-02T05:19:05.713Z,96074.00
2023-05-02T05:20:04.754Z,96072.00
2023-05-02T05:21:04.762Z,96074.00
2023-05-02T05:22:04.813Z,96074.00
2023-05-02T05:23:05.832Z,96076.00
2023-05-02T05:24:04.913Z,96078.00
2023-05-02T05:25:05.004Z,96078.00
2023-05-02T05:26:05.916Z,96076.00
2023-05-02T05:27:05.961Z,96082.00
2023-05-02T05:28:05.010Z,96088.00
2023-05-02T05:29:06.098Z,96086.00
2023-05-02T05:30:05.056Z,96084.00
2023-05-02T05:31:06.154Z,96090.00
2023-05-02T05:32:06.384Z,96090.00
2023-05-02T05:33:05.253Z,96090.00
2023-05-02T05:34:06.305Z,96094.00
2023-05-02T05:35:07.492Z,96092.00
2023-05-02T05:36:06.698Z,96094.00
2023-05-02T05:37:05.519Z,96096.00
2023-05-02T05:38:06.469Z,96094.00
2023-05-02T05:39:06.819Z,96094.00
2023-05-02T05:40:07.985Z,96094.00
2023-05-02T05:41:06.856Z,96096.00
2023-05-02T05:42:07.624Z,96098.00
2023-05-02T05:43:07.008Z,96094.00
2023-05-02T05:44:06.720Z,96094.00
2023-05-02T05:45:07.036Z,96098.00
2023-05-02T05:46:07.202Z,96094.00
2023-05-02T05:47:05.797Z,96100.00
2023-05-02T05:48:06.721Z,96098.00
2023-05-02T05:49:07.220Z,96100.00
2023-05-02T05:50:06.822Z,96096.00
2023-05-02T05:51:06.779Z,96102.00
2023-05-02T05:52:07.661Z,96104.00
2023-05-02T05:53:06.710Z,96104.00
2023-05-02T05:54:06.535Z,96105.00
2023-05-02T05:55:06.388Z,96105.00
2023-05-02T05:56:07.580Z,96107.00
2023-05-02T05:57:06.713Z,96105.00
2023-05-02T05:58:06.705Z,96107.00
2023-05-02T05:59:06.964Z,96105.00
2023-05-02T06:00:06.662Z,96111.00
2023-05-02T06:01:07.682Z,96107.00
2023-05-02T06:02:07.838Z,96111.00
2023-05-02T06:03:08.083Z,96111.00
2023-05-02T06:04:05.832Z,96111.00
2023-05-02T06:05:07.261Z,96113.00
2023-05-02T06:06:06.786Z,96113.00
2023-05-02T06:07:05.714Z,96113.00
2023-05-02T06:08:06.695Z,96113.00
2023-05-02T06:09:05.701Z,96113.00
2023-05-02T06:10:05.751Z,96117.00
2023-05-02T06:11:05.653Z,96119.00
2023-05-02T06:12:06.683Z,96123.00
2023-05-02T06:13:06.677Z,96121.00
2023-05-02T06:14:05.656Z,96125.00
2023-05-02T06:15:05.657Z,96127.00
2023-05-02T06:16:05.682Z,96127.00
2023-05-02T06:17:06.633Z,96127.00
2023-05-02T06:18:06.646Z,96127.00
2023-05-02T06:19:12.622Z,96127.00
2023-05-02T06:20:05.581Z,96131.00
2023-05-02T06:21:05.631Z,96129.00
2023-05-02T06:22:05.638Z,96129.00
2023-05-02T06:23:06.574Z,96131.00
2023-05-02T06:24:06.558Z,96131.00
2023-05-02T06:25:06.587Z,96133.00
2023-05-02T06:26:05.599Z,96133.00
2023-05-02T06:27:05.564Z,96135.00
2023-05-02T06:28:05.537Z,96137.00
2023-05-02T06:29:05.541Z,96137.00
2023-05-02T06:30:06.531Z,96139.00
2023-05-02T06:31:05.553Z,96141.00
2023-05-02T06:32:06.720Z,96141.00
2023-05-02T06:33:06.533Z,96143.00
2023-05-02T06:34:06.502Z,96145.00
2023-05-02T06:35:06.502Z,96145.00
2023-05-02T06:36:06.478Z,96149.00
2023-05-02T06:37:06.483Z,96149.00
2023-05-02T06:38:06.487Z,96147.00
2023-05-02T06:39:05.461Z,96147.00
2023-05-02T06:40:05.480Z,96152.00
2023-05-02T06:41:05.461Z,96151.00
2023-05-02T06:42:06.451Z,96151.00
2023-05-02T06:43:05.430Z,96154.00
2023-05-02T06:44:05.424Z,96156.00
2023-05-02T06:45:05.412Z,96152.00
2023-05-02T06:46:05.409Z,96158.00
2023-05-02T06:47:06.484Z,96156.00
2023-05-02T06:48:06.447Z,96156.00
2023-05-02T06:49:06.400Z,96160.00
2023-05-02T06:50:06.377Z,96160.00
2023-05-02T06:51:05.390Z,96160.00
2023-05-02T06:52:05.487Z,96158.00
2023-05-02T06:53:06.362Z,96162.00
2023-05-02T06:54:06.400Z,96166.00
2023-05-02T06:55:06.349Z,96166.00
2023-05-02T06:56:06.341Z,96172.00
2023-05-02T06:57:05.500Z,96168.00
2023-05-02T06:58:06.337Z,96170.00
2023-05-02T06:59:06.329Z,96170.00
2023-05-02T07:00:06.310Z,96170.00
2023-05-02T07:01:06.385Z,96172.00
2023-05-02T07:02:06.376Z,96174.00
2023-05-02T07:03:06.452Z,96182.00
2023-05-02T07:04:06.489Z,96182.00
2023-05-02T07:05:05.467Z,96182.00
2023-05-02T07:06:06.589Z,96186.00
2023-05-02T07:07:06.560Z,96186.00
2023-05-02T07:08:06.568Z,96186.00
2023-05-02T07:09:06.619Z,96186.00
2023-05-02T07:10:05.642Z,96184.00
2023-05-02T07:11:05.615Z,96184.00
2023-05-02T07:12:06.953Z,96184.00
2023-05-02T07:13:05.662Z,96188.00
2023-05-02T07:14:06.674Z,96188.00
2023-05-02T07:15:06.680Z,96190.00
2023-05-02T07:16:05.706Z,96186.00
2023-05-02T07:17:05.831Z,96192.00
2023-05-02T07:18:05.767Z,96192.00
2023-05-02T07:19:05.751Z,96192.00
2023-05-02T07:20:05.915Z,96192.00
2023-05-02T07:21:06.816Z,96192.00
2023-05-02T07:22:05.852Z,96196.00
2023-05-02T07:23:06.894Z,96194.00
2023-05-02T07:24:06.960Z,96192.00
2023-05-02T07:25:06.947Z,96194.00
2023-05-02T07:26:07.043Z,96192.00
2023-05-02T07:27:07.040Z,96196.00
2023-05-02T07:28:07.081Z,96196.00
2023-05-02T07:29:07.115Z,96194.00
2023-05-02T07:30:06.151Z,96194.00
2023-05-02T07:31:07.223Z,96194.00
2023-05-02T07:32:07.346Z,96192.00
2023-05-02T07:33:07.367Z,96196.00
2023-05-02T07:34:06.363Z,96194.00
2023-05-02T07:35:06.392Z,96194.00
2023-05-02T07:36:07.452Z,96194.00
2023-05-02T07:37:06.508Z,96200.00
2023-05-02T07:38:06.562Z,96198.00
2023-05-02T07:39:06.643Z,96198.00
2023-05-02T07:40:07.680Z,96198.00
2023-05-02T07:41:06.719Z,96200.00
2023-05-02T07:42:07.808Z,96200.00
2023-05-02T07:43:09.876Z,96200.00
2023-05-02T07:44:07.823Z,96202.00
2023-05-02T07:45:07.831Z,96204.00
2023-05-02T07:46:06.936Z,96200.00
2023-05-02T07:47:06.795Z,96205.00
2023-05-02T07:48:07.060Z,96205.00
2023-05-02T07:49:07.792Z,96209.00
2023-05-02T07:50:07.790Z,96211.00
2023-05-02T07:51:07.796Z,96213.00
2023-05-02T07:52:07.789Z,96213.00
2023-05-02T07:53:08.017Z,96215.00
2023-05-02T07:54:07.754Z,96221.00
2023-05-02T07:55:07.750Z,96219.00
2023-05-02T07:56:06.737Z,96219.00
2023-05-02T07:57:07.739Z,96223.00
2023-05-02T07:58:06.821Z,96223.00
2023-05-02T07:59:07.734Z,96221.00
2023-05-02T08:00:07.727Z,96221.00
2023-05-02T08:01:07.736Z,96225.00
2023-05-02T08:02:07.745Z,96227.00
2023-05-02T08:03:07.823Z,96227.00
2023-05-02T08:04:07.866Z,96229.00
2023-05-02T08:05:07.859Z,96229.00
2023-05-02T08:06:07.797Z,96233.00
2023-05-02T08:07:06.660Z,96231.00
2023-05-02T08:08:07.653Z,96235.00
2023-05-02T08:09:07.662Z,96233.00
2023-05-02T08:10:07.625Z,96237.00
2023-05-02T08:11:06.647Z,96237.00
2023-05-02T08:12:06.699Z,96237.00
2023-05-02T08:13:06.768Z,96237.00
2023-05-02T08:14:06.829Z,96235.00
2023-05-02T08:15:07.871Z,96235.00
2023-05-02T08:16:06.983Z,96237.00
2023-05-02T08:17:07.997Z,96237.00
2023-05-02T08:18:08.080Z,96237.00
2023-05-02T08:19:08.108Z,96237.00
2023-05-02T08:20:07.148Z,96239.00
2023-05-02T08:21:07.187Z,96235.00
2023-05-02T08:22:08.245Z,96237.00
2023-05-02T08:23:07.313Z,96235.00
2023-05-02T08:24:07.381Z,96233.00
2023-05-02T08:25:07.439Z,96237.00
2023-05-02T08:26:07.466Z,96237.00
2023-05-02T08:27:08.536Z,96233.00
2023-05-02T08:28:08.582Z,96233.00
2023-05-02T08:29:07.634Z,96235.00
2023-05-02T08:30:08.019Z,96237.00
2023-05-02T08:31:08.814Z,96237.00
2023-05-02T08:32:08.826Z,96237.00
2023-05-02T08:33:07.893Z,96239.00
2023-05-02T08:34:08.906Z,96241.00
2023-05-02T08:35:08.983Z,96239.00
2023-05-02T08:36:09.029Z,96239.00
2023-05-02T08:37:09.104Z,96239.00
2023-05-02T08:38:09.137Z,96239.00
2023-05-02T08:39:09.204Z,96243.00
2023-05-02T08:40:08.242Z,96243.00
2023-05-02T08:41:09.296Z,96241.00
2023-05-02T08:42:09.328Z,96241.00
2023-05-02T08:43:09.541Z,96243.00
2023-05-02T08:44:09.393Z,96245.00
2023-05-02T08:45:09.435Z,96243.00
2023-05-02T08:46:08.496Z,96245.00
2023-05-02T08:47:11.618Z,96251.00
2023-05-02T08:48:09.570Z,96245.00
2023-05-02T08:49:08.468Z,96252.00
2023-05-02T08:50:08.459Z,96249.00
2023-05-02T08:51:08.444Z,96249.00
2023-05-02T08:52:09.442Z,96245.00
2023-05-02T08:53:08.450Z,96247.00
2023-05-02T08:54:09.422Z,96249.00
2023-05-02T08:55:09.429Z,96247.00
2023-05-02T08:56:08.415Z,96247.00
2023-05-02T08:57:09.402Z,96252.00
2023-05-02T08:58:09.589Z,96254.00
2023-05-02T08:59:08.400Z,96251.00
2023-05-02T09:00:08.383Z,96252.00
2023-05-02T09:01:09.409Z,96254.00
2023-05-02T09:02:08.382Z,96256.00
2023-05-02T09:03:09.419Z,96254.00
2023-05-02T09:04:09.389Z,96254.00
2023-05-02T09:05:08.359Z,96256.00
2023-05-02T09:06:09.401Z,96258.00
2023-05-02T09:07:08.727Z,96258.00
2023-05-02T09:08:09.322Z,96262.00
2023-05-02T09:09:09.310Z,96262.00
2023-05-02T09:10:09.304Z,96258.00
2023-05-02T09:11:08.300Z,96260.00
2023-05-02T09:12:08.303Z,96258.00
2023-05-02T09:13:09.277Z,96256.00
2023-05-02T09:14:09.262Z,96254.00
2023-05-02T09:15:08.289Z,96256.00
2023-05-02T09:16:09.281Z,96258.00
2023-05-02T09:17:09.475Z,96258.00
2023-05-02T09:18:09.330Z,96258.00
2023-05-02T09:19:08.245Z,96260.00
2023-05-02T09:20:09.223Z,96260.00
2023-05-02T09:21:09.220Z,96258.00
2023-05-02T09:22:08.219Z,96260.00
2023-05-02T09:23:08.203Z,96254.00
2023-05-02T09:24:09.203Z,96258.00
2023-05-02T09:25:08.194Z,96254.00
2023-05-02T09:26:09.189Z,96256.00
2023-05-02T09:27:09.196Z,96256.00
2023-05-02T09:28:09.214Z,96256.00
2023-05-02T09:29:09.226Z,96256.00
2023-05-02T09:30:09.249Z,96258.00
2023-05-02T09:31:09.365Z,96258.00
2023-05-02T09:32:09.357Z,96256.00
2023-05-02T09:33:08.347Z,96256.00
2023-05-02T09:34:08.622Z,96262.00
2023-05-02T09:35:09.330Z,96258.00
2023-05-02T09:36:08.390Z,96256.00
2023-05-02T09:37:09.381Z,96258.00
2023-05-02T09:38:08.394Z,96260.00
2023-05-02T09:39:08.411Z,96258.00
2023-05-02T09:40:08.441Z,96258.00
2023-05-02T09:41:08.446Z,96258.00
2023-05-02T09:42:09.476Z,96260.00
2023-05-02T09:43:09.492Z,96260.00
2023-05-02T09:44:09.517Z,96260.00
2023-05-02T09:45:08.542Z,96258.00
2023-05-02T09:46:08.599Z,96260.00
2023-05-02T09:47:09.621Z,96256.00
2023-05-02T09:48:09.069Z,96258.00
2023-05-02T09:49:09.735Z,96262.00
2023-05-02T09:50:09.797Z,96260.00
2023-05-02T09:51:08.735Z,96264.00
2023-05-02T09:52:08.824Z,96264.00
2023-05-02T09:53:09.904Z,96262.00
2023-05-02T09:54:09.799Z,96260.00
2023-05-02T09:55:08.833Z,96264.00
2023-05-02T09:56:08.913Z,96260.00
2023-05-02T09:57:08.963Z,96264.00
2023-05-02T09:58:09.046Z,96262.00
2023-05-02T09:59:09.041Z,96262.00
2023-05-02T10:00:10.084Z,96260.00
2023-05-02T10:01:09.144Z,96260.00
2023-05-02T10:02:09.159Z,96260.00
2023-05-02T10:03:10.246Z,96260.00
2023-05-02T10:04:10.275Z,96262.00
2023-05-02T10:05:10.259Z,96260.00
2023-05-02T10:06:10.359Z,96262.00
2023-05-02T10:07:09.342Z,96258.00
2023-05-02T10:08:09.366Z,96256.00
2023-05-02T10:09:10.367Z,96258.00
2023-05-02T10:10:10.379Z,96260.00
2023-05-02T10:11:10.410Z,96258.00
2023-05-02T10:12:10.444Z,96260.00
2023-05-02T10:13:10.561Z,96258.00
2023-05-02T10:14:09.474Z,96260.00
2023-05-02T10:15:09.504Z,96262.00
2023-05-02T10:16:09.573Z,96258.00
2023-05-02T10:17:09.534Z,96260.00
2023-05-02T10:18:10.627Z,96260.00
2023-05-02T10:19:10.584Z,96262.00
2023-05-02T10:20:10.624Z,96260.00
2023-05-02T10:21:09.629Z,96260.00
2023-05-02T10:22:10.676Z,96260.00
2023-05-02T10:23:09.672Z,96260.00
2023-05-02T10:24:10.691Z,96260.00
2023-05-02T10:25:10.730Z,96262.00
2023-05-02T10:26:10.731Z,96264.00
2023-05-02T10:27:10.768Z,96264.00
2023-05-02T10:28:10.782Z,96262.00
2023-05-02T10:29:10.832Z,96262.00
2023-05-02T10:30:10.831Z,96260.00
2023-05-02T10:31:09.877Z,96262.00
2023-05-02T10:32:10.838Z,96258.00
2023-05-02T10:33:10.918Z,96260.00
2023-05-02T10:34:10.884Z,96258.00
2023-05-02T10:35:10.890Z,96258.00
2023-05-02T10:36:10.918Z,96258.00
2023-05-02T10:37:09.935Z,96260.00
2023-05-02T10:38:10.961Z,96258.00
2023-05-02T10:39:10.920Z,96260.00
2023-05-02T10:40:10.921Z,96258.00
2023-05-02T10:41:09.949Z,96260.00
2023-05-02T10:42:11.002Z,96260.00
2023-05-02T10:43:10.066Z,96260.00
2023-05-02T10:44:11.597Z,96260.00
2023-05-02T10:45:11.226Z,96256.00
2023-05-02T10:46:10.272Z,96256.00
2023-05-02T10:47:11.304Z,96256.00
2023-05-02T10:48:10.409Z,96256.00
2023-05-02T10:49:10.392Z,96254.00
2023-05-02T10:50:10.396Z,96256.00
2023-05-02T10:51:11.428Z,96252.00
2023-05-02T10:52:10.473Z,96254.00
2023-05-02T10:53:10.488Z,96252.00
2023-05-02T10:54:11.534Z,96254.00
2023-05-02T10:55:10.561Z,96254.00
2023-05-02T10:56:11.579Z,96252.00
2023-05-02T10:57:11.606Z,96254.00
2023-05-02T10:58:11.633Z,96254.00
2023-05-02T10:59:11.678Z,96254.00
2023-05-02T11:00:11.693Z,96252.00
2023-05-02T11:01:11.792Z,96252.00
2023-05-02T11:02:11.845Z,96251.00
2023-05-02T11:03:11.987Z,96252.00
2023-05-02T11:04:11.839Z,96251.00
2023-05-02T11:05:11.881Z,96254.00
2023-05-02T11:06:10.934Z,96249.00
2023-05-02T11:07:11.933Z,96251.00
2023-05-02T11:08:11.963Z,96251.00
2023-05-02T11:09:10.970Z,96249.00
2023-05-02T11:10:12.046Z,96247.00
2023-05-02T11:11:12.015Z,96251.00
2023-05-02T11:12:12.031Z,96251.00
2023-05-02T11:13:11.089Z,96249.00
2023-05-02T11:14:11.103Z,96251.00
2023-05-02T11:15:14.162Z,96249.00
2023-05-02T11:16:12.195Z,96247.00
2023-05-02T11:17:12.148Z,96254.00
2023-05-02T11:18:12.228Z,96252.00
2023-05-02T11:19:12.113Z,96251.00
2023-05-02T11:20:12.117Z,96251.00
2023-05-02T11:21:12.095Z,96251.00
2023-05-02T11:22:12.096Z,96252.00
2023-05-02T11:23:12.099Z,96251.00
2023-05-02T11:24:12.085Z,96251.00
2023-05-02T11:25:12.053Z,96254.00
2023-05-02T11:26:12.128Z,96252.00
2023-05-02T11:27:12.050Z,96251.00
2023-05-02T11:28:12.036Z,96252.00
2023-05-02T11:29:12.040Z,96252.00
2023-05-02T11:30:12.040Z,96252.00
2023-05-02T11:31:12.018Z,96254.00
2023-05-02T11:32:12.058Z,96254.00
2023-05-02T11:33:12.112Z,96256.00
2023-05-02T11:34:11.010Z,96258.00
2023-05-02T11:35:11.978Z,96258.00
2023-05-02T11:36:11.993Z,96262.00
2023-05-02T11:37:10.965Z,96260.00
2023-05-02T11:38:11.977Z,96260.00
2023-05-02T11:39:12.100Z,96262.00
2023-05-02T11:40:11.993Z,96264.00
2023-05-02T11:41:11.948Z,96264.00
2023-05-02T11:42:11.961Z,96262.00
2023-05-02T11:43:11.949Z,96264.00
2023-05-02T11:44:11.942Z,96264.00